Time;durP1;ratioP1;P1;durP2;ratioP2;P2;SDS_P1;SDS_P2;PMS_P1;PMS_P2;Temp;Humidity;BMP_temperature;BMP_pressure;BME280_temperature;BME280_humidity;BME280_pressure;Samples;Min_cycle;Max_cycle;Signal;HPM_P1;HPM_P2
2022/03/16 00:02:21;;;;;;;28.88;18.00;;;4.00;99.90;;;;;;4985128;28;20128;-85
2022/03/16 00:04:51;;;;;;;28.42;18.75;;;4.20;99.90;;;;;;4992149;28;20593;-84
2022/03/16 00:07:18;;;;;;;30.85;19.42;;;4.20;99.90;;;;;;5000660;28;20050;-85
2022/03/16 00:09:44;;;;;;;28.42;17.67;;;4.20;99.90;;;;;;4989046;28;20045;-84
2022/03/16 00:12:11;;;;;;;26.98;18.60;;;4.30;99.90;;;;;;4982166;28;20050;-84
2022/03/16 00:14:37;;;;;;;24.25;17.73;;;4.40;99.90;;;;;;5013538;28;20077;-84
2022/03/16 00:17:04;;;;;;;31.70;18.20;;;4.40;99.90;;;;;;4967778;28;20048;-85
2022/03/16 00:19:31;;;;;;;29.80;17.77;;;5.50;99.90;;;;;;4998783;28;20054;-86
2022/03/16 00:21:58;;;;;;;29.23;18.40;;;5.00;99.90;;;;;;4998029;28;20085;-86
2022/03/16 00:24:24;;;;;;;32.28;18.17;;;4.50;99.90;;;;;;4984895;28;20058;-85
2022/03/16 00:26:50;;;;;;;30.45;18.60;;;;;;;;;;4991466;28;20046;-85
2022/03/16 00:29:16;;;;;;;30.05;18.35;;;4.60;99.90;;;;;;4988793;28;20054;-85
2022/03/16 00:31:42;;;;;;;28.48;18.35;;;4.60;99.90;;;;;;4988941;28;20065;-84
2022/03/16 00:34:08;;;;;;;29.38;17.70;;;4.90;99.90;;;;;;4999558;28;20058;-85
2022/03/16 00:36:33;;;;;;;27.27;16.92;;;4.70;99.90;;;;;;5002808;28;20050;-84
2022/03/16 00:38:59;;;;;;;26.38;17.88;;;5.30;99.90;;;;;;4987187;28;20057;-84
2022/03/16 00:41:25;;;;;;;24.02;16.88;;;5.60;99.90;;;;;;4987027;28;20477;-85
2022/03/16 00:43:52;;;;;;;28.58;16.80;;;4.70;99.90;;;;;;4999352;28;20046;-85
2022/03/16 00:46:17;;;;;;;27.38;17.17;;;4.70;99.90;;;;;;4986875;28;20048;-85
2022/03/16 00:48:43;;;;;;;28.20;17.95;;;5.10;99.90;;;;;;4985843;28;20042;-85
2022/03/16 00:51:10;;;;;;;24.98;17.10;;;4.60;99.90;;;;;;4999846;28;20518;-85
2022/03/16 00:53:35;;;;;;;27.90;16.73;;;4.60;99.90;;;;;;4970097;28;20038;-85
2022/03/16 00:56:02;;;;;;;24.73;16.63;;;4.60;99.90;;;;;;4993045;28;20050;-84
2022/03/16 00:58:29;;;;;;;21.65;14.55;;;4.60;99.90;;;;;;4988196;28;20552;-84
2022/03/16 01:00:55;;;;;;;24.20;16.02;;;4.60;99.90;;;;;;4966222;28;20097;-84
2022/03/16 01:03:21;;;;;;;23.58;16.17;;;4.50;99.90;;;;;;4993017;28;20125;-84
2022/03/16 01:05:46;;;;;;;25.85;16.00;;;4.50;99.90;;;;;;5014200;28;20552;-82
2022/03/16 01:08:13;;;;;;;22.65;15.27;;;4.40;99.90;;;;;;4971181;28;20086;-84
2022/03/16 01:10:39;;;;;;;24.52;16.17;;;5.00;99.90;;;;;;4999270;28;20124;-83
2022/03/16 01:13:05;;;;;;;22.52;14.88;;;5.10;99.90;;;;;;4984003;28;20100;-82
2022/03/16 01:15:31;;;;;;;24.90;15.43;;;4.30;99.90;;;;;;4988513;28;20120;-83
2022/03/16 01:17:57;;;;;;;21.30;14.95;;;4.30;99.90;;;;;;4987321;28;20414;-83
2022/03/16 01:20:23;;;;;;;23.42;15.10;;;4.30;99.90;;;;;;4985114;28;20049;-84
2022/03/16 01:22:48;;;;;;;20.92;14.25;;;4.70;99.90;;;;;;4997769;28;20053;-84
2022/03/16 01:25:14;;;;;;;21.65;14.25;;;4.10;99.90;;;;;;4984268;28;20045;-84
2022/03/16 01:27:40;;;;;;;20.75;15.13;;;4.10;99.90;;;;;;4999725;28;20089;-84
2022/03/16 01:30:06;;;;;;;21.15;13.93;;;5.40;99.90;;;;;;5002429;28;20038;-84
2022/03/16 01:32:32;;;;;;;20.83;15.10;;;4.00;99.90;;;;;;4987236;28;20049;-83
2022/03/16 01:34:58;;;;;;;22.15;14.77;;;4.00;99.90;;;;;;4983177;28;20073;-83
2022/03/16 01:37:24;;;;;;;20.83;14.38;;;4.00;99.90;;;;;;4996870;28;20080;-85
2022/03/16 01:39:50;;;;;;;19.85;14.50;;;3.90;99.90;;;;;;4997056;28;20053;-84
2022/03/16 01:42:15;;;;;;;22.42;13.75;;;3.90;99.90;;;;;;4983444;28;20075;-85
2022/03/16 01:44:47;;;;;;;21.33;14.07;;;3.90;99.90;;;;;;4979460;28;20125;-85
2022/03/16 01:47:15;;;;;;;22.92;14.40;;;3.80;99.90;;;;;;4999046;28;20047;-86
2022/03/16 01:49:41;;;;;;;23.63;15.43;;;;;;;;;;5000985;28;20819;-85
2022/03/16 01:52:08;;;;;;;21.23;15.23;;;3.70;99.90;;;;;;5001118;28;20053;-83
2022/03/16 01:54:34;;;;;;;20.20;14.38;;;3.70;99.90;;;;;;4982508;28;20396;-84
2022/03/16 01:57:00;;;;;;;20.67;14.23;;;3.90;99.90;;;;;;4990880;28;20038;-85
2022/03/16 01:59:26;;;;;;;21.33;15.00;;;3.70;99.90;;;;;;4991514;28;20561;-85
2022/03/16 02:01:52;;;;;;;24.73;16.80;;;4.90;99.90;;;;;;4996057;28;20049;-85
2022/03/16 02:04:17;;;;;;;27.60;16.55;;;3.60;99.90;;;;;;4985102;28;20136;-84
2022/03/16 02:06:43;;;;;;;25.83;16.65;;;4.70;99.90;;;;;;4980921;28;20423;-84
2022/03/16 02:09:09;;;;;;;27.90;16.33;;;3.60;99.90;;;;;;5001496;28;20399;-85
2022/03/16 02:11:35;;;;;;;28.10;17.58;;;3.60;99.90;;;;;;4984939;28;20045;-85
2022/03/16 02:14:01;;;;;;;27.95;16.67;;;3.60;99.90;;;;;;4982985;28;20111;-85
2022/03/16 02:16:27;;;;;;;29.35;16.73;;;3.90;99.90;;;;;;4964524;28;20141;-86
2022/03/16 02:18:53;;;;;;;25.80;17.02;;;4.90;99.90;;;;;;4983975;28;20141;-85
2022/03/16 02:21:20;;;;;;;25.90;17.05;;;3.60;99.90;;;;;;4986970;28;20066;-85
2022/03/16 02:23:46;;;;;;;26.67;17.67;;;3.60;99.90;;;;;;4982661;28;20369;-84
2022/03/16 02:26:15;;;;;;;27.77;17.85;;;2.40;99.90;;;;;;4985623;28;20050;-85
2022/03/16 02:28:40;;;;;;;24.65;16.77;;;3.50;99.90;;;;;;5000361;28;20039;-85
2022/03/16 02:31:06;;;;;;;24.88;17.30;;;;;;;;;;4967662;28;20135;-85
2022/03/16 02:33:32;;;;;;;28.67;16.83;;;3.50;99.90;;;;;;5000671;28;20054;-86
2022/03/16 02:35:58;;;;;;;26.38;18.38;;;3.40;99.90;;;;;;4990700;28;20506;-85
2022/03/16 02:38:24;;;;;;;28.95;17.63;;;3.50;99.90;;;;;;4980863;28;20104;-83
2022/03/16 02:40:50;;;;;;;27.10;17.80;;;3.90;99.90;;;;;;4984496;28;20054;-83
2022/03/16 02:43:15;;;;;;;25.30;17.13;;;3.50;99.90;;;;;;4982819;28;20050;-83
2022/03/16 02:45:41;;;;;;;25.45;16.45;;;3.50;99.90;;;;;;4976278;28;20038;-82
2022/03/16 02:48:07;;;;;;;23.05;15.75;;;3.50;99.90;;;;;;4984262;28;20086;-83
2022/03/16 02:50:33;;;;;;;21.75;16.58;;;3.50;99.90;;;;;;4983919;28;20076;-85
2022/03/16 02:52:59;;;;;;;23.40;15.35;;;3.60;99.90;;;;;;4981094;28;20049;-84
2022/03/16 02:55:25;;;;;;;23.83;15.80;;;4.30;99.90;;;;;;4990747;28;20039;-83
2022/03/16 02:57:50;;;;;;;25.27;16.33;;;3.40;99.90;;;;;;5000210;28;20125;-83
2022/03/16 03:00:16;;;;;;;24.67;16.92;;;4.90;99.90;;;;;;4993361;28;20057;-84
2022/03/16 03:02:42;;;;;;;29.50;16.70;;;3.30;99.90;;;;;;5002898;28;20077;-84
2022/03/16 03:05:09;;;;;;;22.38;16.30;;;4.20;99.90;;;;;;4985774;28;20042;-83
2022/03/16 03:07:34;;;;;;;23.05;16.15;;;3.20;99.90;;;;;;4983762;28;20054;-85
2022/03/16 03:10:00;;;;;;;22.90;15.60;;;3.30;99.90;;;;;;4974837;28;20128;-83
2022/03/16 03:12:26;;;;;;;23.27;16.25;;;3.10;99.90;;;;;;4971074;28;20591;-84
2022/03/16 03:14:51;;;;;;;20.88;15.55;;;3.10;99.90;;;;;;5001057;28;20128;-83
2022/03/16 03:17:17;;;;;;;26.63;15.50;;;3.60;99.90;;;;;;4970535;28;20109;-84
2022/03/16 03:19:48;;;;;;;22.15;15.40;;;3.30;99.90;;;;;;4985434;28;20043;-83
2022/03/16 03:22:13;;;;;;;24.60;15.70;;;4.60;99.90;;;;;;5004858;28;20073;-84
2022/03/16 03:24:40;;;;;;;22.05;15.40;;;3.10;99.90;;;;;;4968780;28;20103;-83
2022/03/16 03:27:06;;;;;;;23.73;16.35;;;2.90;99.90;;;;;;4969821;28;20053;-84
2022/03/16 03:29:31;;;;;;;23.75;16.25;;;4.70;99.90;;;;;;4989091;28;20049;-84
2022/03/16 03:31:58;;;;;;;23.05;15.07;;;2.90;99.90;;;;;;4989505;28;20046;-83
2022/03/16 03:34:24;;;;;;;25.25;16.88;;;2.90;99.90;;;;;;4986014;28;20077;-84
2022/03/16 03:36:50;;;;;;;28.50;18.42;;;4.10;99.90;;;;;;4984343;28;20081;-83
2022/03/16 03:39:15;;;;;;;27.80;18.65;;;4.30;99.90;;;;;;4990018;28;20046;-85
2022/03/16 03:41:42;;;;;;;28.17;18.73;;;3.00;99.90;;;;;;4988831;28;20057;-84
2022/03/16 03:44:08;;;;;;;32.58;19.80;;;3.10;99.90;;;;;;4977634;28;20101;-85
2022/03/16 03:46:33;;;;;;;27.17;18.70;;;3.30;99.90;;;;;;4994696;28;22373;-84
2022/03/16 03:48:59;;;;;;;28.50;18.73;;;4.60;99.90;;;;;;4970665;28;20054;-85
2022/03/16 03:51:25;;;;;;;29.08;18.75;;;3.40;99.90;;;;;;4992871;28;20080;-84
2022/03/16 03:53:51;;;;;;;25.20;18.40;;;3.00;99.90;;;;;;5000158;28;20036;-84
2022/03/16 03:56:17;;;;;;;27.15;17.90;;;3.00;99.90;;;;;;5003503;28;20502;-85
2022/03/16 03:58:42;;;;;;;29.17;19.08;;;3.00;99.90;;;;;;4987192;28;20104;-84
2022/03/16 04:01:09;;;;;;;26.10;17.55;;;2.90;99.90;;;;;;4987345;28;20050;-84
2022/03/16 04:03:35;;;;;;;25.00;17.52;;;2.90;99.90;;;;;;4991433;28;20519;-83
2022/03/16 04:06:01;;;;;;;30.27;19.70;;;3.00;99.90;;;;;;5002584;28;20043;-84
2022/03/16 04:08:27;;;;;;;29.70;19.35;;;2.90;99.90;;;;;;4994220;28;20570;-83
2022/03/16 04:10:52;;;;;;;30.05;19.80;;;3.20;99.90;;;;;;4998784;28;20168;-84
2022/03/16 04:13:18;;;;;;;29.23;19.75;;;3.00;99.90;;;;;;5001501;28;20054;-83
2022/03/16 04:15:44;;;;;;;33.72;21.48;;;3.10;99.90;;;;;;4967980;28;20045;-84
2022/03/16 04:18:09;;;;;;;32.35;20.45;;;3.70;99.90;;;;;;4983946;28;20046;-84
2022/03/16 04:20:41;;;;;;;33.88;22.38;;;4.70;99.90;;;;;;5001667;28;20041;-83
2022/03/16 04:23:06;;;;;;;29.75;19.92;;;4.50;99.90;;;;;;4997812;28;20381;-83
2022/03/16 04:25:32;;;;;;;29.48;20.58;;;3.20;99.90;;;;;;4986314;28;20500;-84
2022/03/16 04:27:58;;;;;;;28.25;19.10;;;3.00;99.90;;;;;;4968453;28;20061;-84
2022/03/16 04:30:24;;;;;;;27.42;19.17;;;1.50;99.90;;;;;;4985155;28;20046;-84
2022/03/16 04:32:52;;;;;;;29.95;19.63;;;4.40;99.90;;;;;;4986019;28;20468;-83
2022/03/16 04:35:19;;;;;;;28.83;19.25;;;3.00;99.90;;;;;;4972462;28;20061;-84
2022/03/16 04:37:45;;;;;;;28.23;19.73;;;4.40;99.90;;;;;;4968545;28;20117;-84
2022/03/16 04:40:11;;;;;;;30.88;18.50;;;3.30;99.90;;;;;;4967350;28;21494;-84
2022/03/16 04:42:37;;;;;;;33.47;21.35;;;2.90;99.90;;;;;;4971138;28;20046;-84
2022/03/16 04:45:03;;;;;;;31.88;20.05;;;2.90;99.90;;;;;;4993173;28;20053;-83
2022/03/16 04:47:28;;;;;;;30.98;20.40;;;2.90;99.90;;;;;;4987151;28;20070;-83
2022/03/16 04:49:54;;;;;;;31.90;19.55;;;4.00;99.90;;;;;;4998994;28;20046;-83
2022/03/16 04:52:20;;;;;;;30.73;19.83;;;3.40;99.90;;;;;;4982936;28;20117;-83
2022/03/16 04:54:46;;;;;;;34.38;20.42;;;2.90;99.90;;;;;;5002013;28;20046;-83
2022/03/16 04:57:11;;;;;;;28.52;19.02;;;2.90;99.90;;;;;;4981653;28;20100;-83
2022/03/16 04:59:37;;;;;;;31.90;19.20;;;3.00;99.90;;;;;;4984589;28;20556;-83
2022/03/16 05:02:03;;;;;;;30.15;20.20;;;2.90;99.90;;;;;;4980192;28;20041;-83
2022/03/16 05:04:29;;;;;;;30.60;20.67;;;2.90;99.90;;;;;;5000773;28;20076;-83
2022/03/16 05:06:54;;;;;;;29.40;20.20;;;3.60;99.90;;;;;;4999584;28;20056;-83
2022/03/16 05:09:20;;;;;;;32.60;21.58;;;2.90;99.90;;;;;;4981475;28;20138;-83
2022/03/16 05:11:46;;;;;;;30.02;19.48;;;4.30;99.90;;;;;;4967027;28;20116;-82
2022/03/16 05:14:12;;;;;;;29.63;19.30;;;2.90;99.90;;;;;;4995290;28;20076;-82
2022/03/16 05:16:38;;;;;;;31.33;19.98;;;3.40;99.90;;;;;;4996194;28;20045;-83
2022/03/16 05:19:04;;;;;;;26.15;19.30;;;2.90;99.90;;;;;;4988386;28;20476;-82
2022/03/16 05:21:29;;;;;;;30.25;19.45;;;2.90;99.90;;;;;;4984670;28;20042;-83
2022/03/16 05:23:55;;;;;;;30.83;19.52;;;2.90;99.90;;;;;;4998318;28;20835;-83
2022/03/16 05:26:21;;;;;;;29.17;19.98;;;3.00;99.90;;;;;;4965994;28;20053;-83
2022/03/16 05:28:46;;;;;;;30.40;20.40;;;3.00;99.90;;;;;;4965750;28;20061;-83
2022/03/16 05:31:12;;;;;;;28.38;19.67;;;3.20;99.90;;;;;;4962217;28;20483;-82
2022/03/16 05:33:38;;;;;;;31.13;20.00;;;3.80;99.90;;;;;;4984379;28;20050;-83
2022/03/16 05:36:04;;;;;;;30.55;19.13;;;4.30;99.90;;;;;;4981438;28;20085;-83
2022/03/16 05:38:30;;;;;;;30.90;19.58;;;2.80;99.90;;;;;;5005790;28;20133;-84
2022/03/16 05:40:55;;;;;;;29.10;18.73;;;2.80;99.90;;;;;;4966254;28;20141;-84
2022/03/16 05:43:22;;;;;;;31.23;20.00;;;2.80;99.90;;;;;;4966070;28;20112;-83
2022/03/16 05:45:49;;;;;;;31.02;19.58;;;2.80;99.90;;;;;;4985490;28;20403;-84
2022/03/16 05:48:15;;;;;;;26.80;18.77;;;3.30;99.90;;;;;;4995946;28;20526;-83
2022/03/16 05:50:45;;;;;;;31.27;20.52;;;4.40;99.90;;;;;;5004379;28;20046;-84
2022/03/16 05:53:11;;;;;;;28.38;19.85;;;2.70;99.90;;;;;;5009774;28;20840;-82
2022/03/16 05:55:37;;;;;;;34.42;20.67;;;2.70;99.90;;;;;;4978910;28;20046;-82
2022/03/16 05:58:03;;;;;;;30.75;19.48;;;3.60;99.90;;;;;;4978992;28;20057;-84
2022/03/16 06:00:28;;;;;;;31.92;20.38;;;3.70;99.90;;;;;;4997338;28;20054;-83
2022/03/16 06:02:54;;;;;;;34.97;21.70;;;4.00;99.90;;;;;;4988866;28;20043;-83
2022/03/16 06:05:20;;;;;;;31.42;19.95;;;3.20;99.90;;;;;;4996337;28;20074;-83
2022/03/16 06:07:46;;;;;;;31.83;20.88;;;2.70;99.90;;;;;;4963986;28;20141;-84
2022/03/16 06:10:17;;;;;;;29.00;19.83;;;2.70;99.90;;;;;;4995422;28;20049;-83
2022/03/16 06:12:52;;;;;;;34.05;21.55;;;2.70;99.90;;;;;;4988497;28;20152;-84
2022/03/16 06:15:18;;;;;;;31.02;20.42;;;2.70;99.90;;;;;;4984800;28;20042;-85
2022/03/16 06:17:44;;;;;;;30.55;21.13;;;2.70;99.90;;;;;;4996830;28;20047;-83
2022/03/16 06:20:10;;;;;;;30.13;20.08;;;4.40;99.90;;;;;;4966838;28;20397;-83
2022/03/16 06:22:36;;;;;;;31.45;20.67;;;2.80;99.90;;;;;;4983537;28;20046;-85
2022/03/16 06:25:02;;;;;;;30.73;18.73;;;2.80;99.90;;;;;;4964357;28;20061;-87
2022/03/16 06:27:28;;;;;;;30.42;20.38;;;2.80;99.90;;;;;;4966604;28;20050;-82
2022/03/16 06:29:54;;;;;;;33.55;22.25;;;3.00;99.90;;;;;;4993689;28;20057;-84
2022/03/16 06:32:20;;;;;;;30.90;20.83;;;2.90;99.90;;;;;;4966712;28;20054;-83
2022/03/16 06:34:46;;;;;;;32.03;22.05;;;3.20;99.90;;;;;;4999022;28;20133;-83
2022/03/16 06:37:13;;;;;;;41.17;24.60;;;3.00;99.90;;;;;;4986828;28;20565;-83
2022/03/16 06:39:39;;;;;;;33.50;22.25;;;3.10;99.90;;;;;;4983145;28;20056;-84
2022/03/16 06:42:05;;;;;;;34.45;22.48;;;3.10;99.90;;;;;;4974733;28;20103;-84
2022/03/16 06:44:31;;;;;;;34.80;22.10;;;3.10;99.90;;;;;;4982407;28;20132;-84
2022/03/16 06:46:57;;;;;;;36.88;22.50;;;3.40;99.90;;;;;;4986015;28;20455;-85
2022/03/16 06:49:23;;;;;;;35.55;23.77;;;3.20;99.90;;;;;;5009434;28;20045;-85
2022/03/16 06:51:49;;;;;;;33.95;22.50;;;3.30;99.90;;;;;;4985689;28;20496;-85
2022/03/16 06:54:20;;;;;;;32.72;22.58;;;4.20;99.90;;;;;;5015729;28;20176;-86
2022/03/16 06:56:49;;;;;;;34.92;23.83;;;4.00;99.90;;;;;;4986654;28;20078;-88
2022/03/16 06:59:15;;;;;;;32.72;23.10;;;3.40;99.90;;;;;;4983461;28;20069;-82
2022/03/16 07:01:41;;;;;;;37.60;23.58;;;3.60;99.90;;;;;;4992720;28;20058;-83
2022/03/16 07:04:07;;;;;;;32.05;22.42;;;5.10;99.90;;;;;;4984091;28;20120;-84
2022/03/16 07:06:33;;;;;;;34.90;22.85;;;3.90;99.90;;;;;;4984282;28;20057;-85
2022/03/16 07:08:59;;;;;;;37.65;24.55;;;3.60;99.90;;;;;;4999115;28;20042;-83
2022/03/16 07:11:25;;;;;;;37.40;24.65;;;3.70;99.90;;;;;;5000718;28;20115;-83
2022/03/16 07:16:35;;;;;;;36.75;23.70;;;4.90;99.90;;;;;;4999794;28;20042;-88
2022/03/16 07:19:03;;;;;;;37.65;24.75;;;4.00;99.90;;;;;;4979865;28;20157;-83
2022/03/16 07:21:28;;;;;;;37.33;23.85;;;4.00;99.90;;;;;;5016701;28;20053;-85
2022/03/16 07:23:54;;;;;;;36.30;23.48;;;4.20;99.90;;;;;;4990659;28;20042;-85
2022/03/16 07:26:20;;;;;;;37.83;24.33;;;4.20;99.90;;;;;;4983267;28;20042;-85
2022/03/16 07:28:48;;;;;;;44.88;26.70;;;4.30;99.90;;;;;;4982803;28;20088;-84
2022/03/16 07:31:14;;;;;;;39.05;26.08;;;4.40;99.90;;;;;;4997001;28;20042;-86
2022/03/16 07:33:39;;;;;;;38.20;26.40;;;4.60;99.90;;;;;;4983783;28;20092;-85
2022/03/16 07:36:08;;;;;;;37.58;24.23;;;4.60;99.90;;;;;;5000205;28;20094;-85
2022/03/16 07:38:34;;;;;;;35.83;23.80;;;4.90;99.90;;;;;;5007689;28;20076;-85
2022/03/16 07:41:02;;;;;;;38.90;26.45;;;3.30;99.90;;;;;;4981067;28;20392;-83
2022/03/16 07:43:29;;;;;;;40.78;27.25;;;4.80;99.90;;;;;;4999729;28;20042;-83
2022/03/16 07:45:56;;;;;;;42.63;28.40;;;4.90;99.90;;;;;;4983435;28;20049;-83
2022/03/16 07:48:22;;;;;;;34.75;24.55;;;5.00;99.90;;;;;;4974393;28;20050;-84
2022/03/16 07:50:49;;;;;;;40.03;26.48;;;6.60;99.90;;;;;;4985021;28;20137;-82
2022/03/16 07:53:15;;;;;;;38.65;27.02;;;5.10;99.90;;;;;;4976083;28;20050;-81
2022/03/16 07:55:41;;;;;;;38.08;26.92;;;5.20;99.90;;;;;;4973978;28;20540;-82
2022/03/16 07:58:07;;;;;;;41.38;27.77;;;6.80;99.90;;;;;;4998865;28;20054;-83
2022/03/16 08:00:32;;;;;;;38.15;26.45;;;5.30;99.90;;;;;;4982385;28;20065;-81
2022/03/16 08:03:03;;;;;;;37.35;27.55;;;5.30;99.90;;;;;;4997518;28;20136;-84
2022/03/16 08:05:29;;;;;;;40.70;27.65;;;5.40;99.90;;;;;;4991806;28;20543;-82
2022/03/16 08:07:55;;;;;;;38.65;26.73;;;4.10;99.90;;;;;;4982972;28;20089;-82
2022/03/16 08:10:21;;;;;;;43.42;28.60;;;5.70;99.90;;;;;;4982022;28;20083;-82
2022/03/16 08:12:47;;;;;;;40.65;28.63;;;6.00;99.90;;;;;;4983529;28;20050;-83
2022/03/16 08:15:13;;;;;;;42.00;30.25;;;6.10;99.90;;;;;;4982588;28;20338;-82
2022/03/16 08:17:39;;;;;;;40.75;28.90;;;7.60;99.90;;;;;;5005171;28;20065;-83
2022/03/16 08:20:05;;;;;;;44.13;29.23;;;6.50;99.90;;;;;;4980363;28;20088;-82
2022/03/16 08:22:33;;;;;;;40.17;26.50;;;6.70;99.90;;;;;;4989512;28;20049;-83
2022/03/16 08:25:03;;;;;;;38.22;26.38;;;6.70;99.90;;;;;;4999083;28;20054;-83
2022/03/16 08:27:29;;;;;;;39.28;26.65;;;6.70;99.90;;;;;;4990058;28;20054;-83
2022/03/16 08:29:55;;;;;;;39.80;27.25;;;7.30;99.90;;;;;;4980717;28;20101;-84
2022/03/16 08:32:22;;;;;;;43.30;28.17;;;7.30;99.90;;;;;;4997387;28;20493;-83
2022/03/16 08:34:48;;;;;;;37.85;26.88;;;7.80;99.90;;;;;;4996271;28;20403;-83
2022/03/16 08:37:14;;;;;;;38.22;27.25;;;7.80;99.90;;;;;;4982098;28;20046;-84
2022/03/16 08:39:41;;;;;;;37.78;28.60;;;8.10;99.90;;;;;;4982966;28;20112;-84
2022/03/16 08:42:08;;;;;;;40.20;26.42;;;8.20;99.90;;;;;;4990835;28;20047;-84
2022/03/16 08:44:35;;;;;;;40.58;27.35;;;8.40;99.90;;;;;;4997282;28;20084;-84
2022/03/16 08:47:01;;;;;;;34.67;26.63;;;8.60;99.90;;;;;;4989722;28;20039;-84
2022/03/16 08:49:27;;;;;;;33.80;26.05;;;7.80;99.90;;;;;;5001535;28;20737;-84
2022/03/16 08:51:53;;;;;;;34.42;26.38;;;8.90;99.90;;;;;;4992121;28;20053;-83
2022/03/16 08:54:18;;;;;;;31.23;24.52;;;9.10;99.90;;;;;;4989672;28;20084;-84
2022/03/16 08:56:44;;;;;;;29.10;24.17;;;9.20;99.90;;;;;;4971002;28;20038;-84
2022/03/16 08:59:10;;;;;;;30.92;21.90;;;9.40;99.90;;;;;;5001579;28;20420;-84
2022/03/16 09:01:37;;;;;;;27.70;21.33;;;9.60;99.90;;;;;;4986130;28;20046;-84
2022/03/16 09:04:03;;;;;;;28.30;22.30;;;9.80;99.90;;;;;;4969738;28;20055;-84
2022/03/16 09:06:29;;;;;;;24.80;20.75;;;10.10;99.90;;;;;;4990833;28;20121;-85
2022/03/16 09:08:55;;;;;;;22.33;18.67;;;10.30;99.90;;;;;;5003411;28;20499;-84
2022/03/16 09:11:21;;;;;;;19.20;16.42;;;10.50;99.90;;;;;;5007509;28;20049;-84
2022/03/16 09:13:50;;;;;;;20.77;16.67;;;10.60;99.90;;;;;;4992576;28;20412;-83
2022/03/16 09:16:15;;;;;;;21.25;17.67;;;10.80;99.90;;;;;;4991758;28;20052;-84
2022/03/16 09:18:41;;;;;;;20.52;16.58;;;10.90;99.90;;;;;;4984947;28;20049;-84
2022/03/16 09:21:07;;;;;;;18.27;15.40;;;11.10;99.90;;;;;;4998035;28;20043;-85
2022/03/16 09:23:33;;;;;;;20.45;13.80;;;11.30;99.90;;;;;;4989455;28;20046;-84
2022/03/16 09:26:00;;;;;;;16.88;13.57;;;11.40;99.90;;;;;;4997963;28;20049;-82
2022/03/16 09:28:27;;;;;;;14.25;12.38;;;11.50;99.90;;;;;;4998595;28;20128;-84
2022/03/16 09:30:53;;;;;;;14.50;12.60;;;11.60;99.90;;;;;;4986237;28;20050;-83
2022/03/16 09:33:21;;;;;;;13.68;11.50;;;11.70;99.90;;;;;;4992239;28;20046;-83
2022/03/16 09:35:48;;;;;;;14.88;11.52;;;11.80;99.90;;;;;;4979130;28;20050;-83
2022/03/16 09:38:17;;;;;;;13.38;11.40;;;12.00;99.90;;;;;;4987931;28;20049;-82
2022/03/16 09:40:43;;;;;;;13.32;10.45;;;12.20;99.90;;;;;;5000646;28;20042;-86
2022/03/16 09:43:13;;;;;;;12.80;10.35;;;12.30;99.90;;;;;;5014728;28;20046;-85
2022/03/16 09:46:11;;;;;;;14.15;10.07;;;12.40;99.90;;;;;;4980614;28;20047;-87
2022/03/16 09:48:39;;;;;;;13.85;10.30;;;12.50;99.90;;;;;;4978594;28;20150;-85
2022/03/16 09:51:06;;;;;;;13.23;9.73;;;12.60;99.90;;;;;;5011667;28;20117;-84
2022/03/16 09:53:33;;;;;;;11.88;9.07;;;12.50;99.90;;;;;;4996026;28;20054;-82
2022/03/16 09:55:59;;;;;;;13.95;10.30;;;12.50;99.90;;;;;;4985889;28;20053;-84
2022/03/16 09:58:26;;;;;;;14.48;10.52;;;12.50;99.90;;;;;;5014355;28;20046;-84
2022/03/16 10:00:55;;;;;;;13.20;9.70;;;12.50;99.90;;;;;;4998576;28;20053;-84
2022/03/16 10:03:28;;;;;;;12.60;9.85;;;12.60;99.90;;;;;;4983786;28;20484;-83
2022/03/16 10:05:57;;;;;;;12.40;9.90;;;12.70;99.90;;;;;;4998047;28;20491;-84
2022/03/16 10:08:34;;;;;;;13.45;9.90;;;12.80;99.90;;;;;;4984405;28;20052;-84
2022/03/16 10:14:07;;;;;;;11.98;8.82;;;12.90;99.90;;;;;;5005037;28;20054;-84
2022/03/16 10:19:24;;;;;;;11.27;9.05;;;13.00;99.90;;;;;;5009896;28;20115;-84
2022/03/16 10:21:58;;;;;;;10.70;8.50;;;13.20;99.90;;;;;;5000584;28;20054;-84
2022/03/16 10:24:29;;;;;;;10.68;8.30;;;13.10;99.90;;;;;;5015885;28;20049;-83
2022/03/16 10:26:58;;;;;;;11.60;8.75;;;13.30;99.90;;;;;;5000297;28;20045;-83
2022/03/16 10:29:31;;;;;;;11.50;8.98;;;13.40;99.90;;;;;;5002037;28;20113;-83
2022/03/16 10:32:05;;;;;;;9.90;7.55;;;13.40;99.90;;;;;;5029764;28;20072;-84
2022/03/16 10:34:31;;;;;;;10.32;7.82;;;13.40;99.90;;;;;;5039016;28;20057;-84
2022/03/16 10:37:02;;;;;;;9.48;7.65;;;13.40;99.90;;;;;;5016131;28;20637;-83
2022/03/16 10:39:37;;;;;;;10.25;8.25;;;13.40;99.90;;;;;;5022555;28;20069;-83
2022/03/16 10:48:00;;;;;;;10.20;7.72;;;13.90;99.90;;;;;;5027172;28;20101;-84
2022/03/16 10:50:26;;;;;;;10.38;7.85;;;14.10;99.90;;;;;;5011311;28;20029;-83
2022/03/16 10:52:54;;;;;;;10.98;7.93;;;14.30;99.90;;;;;;5024093;28;20069;-84
2022/03/16 10:55:21;;;;;;;8.95;7.18;;;14.50;99.90;;;;;;5010385;28;20038;-82
2022/03/16 10:57:50;;;;;;;9.68;7.47;;;14.80;99.90;;;;;;5013074;28;20054;-84
2022/03/16 11:00:17;;;;;;;9.18;7.60;;;14.90;99.90;;;;;;5021515;28;20056;-84
2022/03/16 11:02:46;;;;;;;9.45;6.93;;;15.00;99.90;;;;;;5001641;28;20050;-84
2022/03/16 11:05:16;;;;;;;8.30;7.07;;;15.20;99.90;;;;;;4985565;28;20057;-83
2022/03/16 11:07:44;;;;;;;8.52;6.63;;;15.30;99.90;;;;;;4985951;28;20042;-83
2022/03/16 11:10:10;;;;;;;9.43;7.25;;;15.60;99.90;;;;;;5019523;28;20046;-84
2022/03/16 11:15:26;;;;;;;10.23;7.47;;;15.80;99.90;;;;;;4989525;28;20136;-84
2022/03/16 11:17:52;;;;;;;8.93;7.63;;;16.00;99.90;;;;;;4984851;28;20129;-82
2022/03/16 11:20:19;;;;;;;8.93;7.65;;;16.00;99.90;;;;;;4999607;28;20133;-84
2022/03/16 11:25:56;;;;;;;9.68;7.07;;;16.30;99.90;;;;;;5007269;28;20054;-85
2022/03/16 11:28:55;;;;;;;8.45;7.32;;;16.50;99.90;;;;;;4999672;28;20069;-84
2022/03/16 11:31:28;;;;;;;9.40;7.30;;;16.70;99.90;;;;;;4997645;28;20054;-84
2022/03/16 11:33:55;;;;;;;7.53;6.55;;;16.90;99.90;;;;;;4984953;28;20050;-84
2022/03/16 11:36:58;;;;;;;8.45;6.68;;;17.00;99.90;;;;;;4983709;28;20116;-84
2022/03/16 11:39:24;;;;;;;8.70;6.13;;;17.10;98.00;;;;;;4982789;28;20058;-85
2022/03/16 11:41:55;;;;;;;7.68;6.38;;;17.30;99.60;;;;;;5000335;28;20138;-84
2022/03/16 11:44:25;;;;;;;8.52;6.13;;;17.50;98.30;;;;;;5000987;28;20053;-84
2022/03/16 11:46:52;;;;;;;8.15;6.47;;;17.70;98.60;;;;;;5000766;28;20111;-84
2022/03/16 11:49:30;;;;;;;7.10;5.88;;;17.70;97.70;;;;;;4999739;28;20054;-84
2022/03/16 11:52:00;;;;;;;8.20;5.57;;;17.80;95.30;;;;;;4999067;28;20046;-86
2022/03/16 11:54:51;;;;;;;6.82;5.97;;;17.90;95.50;;;;;;4999570;28;20043;-85
2022/03/16 11:57:58;;;;;;;7.60;6.38;;;17.30;94.20;;;;;;4990810;28;20101;-84
2022/03/16 12:00:26;;;;;;;7.57;6.57;;;17.50;93.90;;;;;;4983602;28;20056;-85
2022/03/16 12:02:59;;;;;;;9.30;7.65;;;18.20;95.60;;;;;;4983227;28;20510;-85
2022/03/16 12:05:27;;;;;;;6.95;6.25;;;18.40;94.90;;;;;;4998712;28;20056;-83
2022/03/16 12:08:23;;;;;;;8.88;6.30;;;18.60;95.30;;;;;;4967409;28;20558;-86
2022/03/16 12:12:50;;;;;;;6.45;5.60;;;19.10;92.20;;;;;;4998738;28;20053;-86
2022/03/16 12:13:45;;;;;;;11.18;5.55;;;19.30;93.00;;;;;;4997814;28;20077;-84
2022/03/16 12:16:17;;;;;;;7.10;5.68;;;19.50;88.50;;;;;;4997312;28;20193;-84
2022/03/16 12:18:46;;;;;;;6.80;5.80;;;19.50;89.30;;;;;;4995998;28;20046;-84
2022/03/16 12:21:14;;;;;;;8.25;6.50;;;19.40;86.60;;;;;;4998824;28;20049;-83
2022/03/16 12:23:58;;;;;;;6.55;5.78;;;19.40;86.30;;;;;;4982886;28;20041;-83
2022/03/16 12:26:27;;;;;;;8.63;5.72;;;19.60;80.30;;;;;;4996739;28;20038;-84
2022/03/16 12:29:05;;;;;;;7.85;6.20;;;19.80;83.60;;;;;;4996607;28;20069;-84
2022/03/16 12:31:34;;;;;;;7.93;5.65;;;19.70;77.90;;;;;;4996981;28;20050;-85
2022/03/16 12:34:00;;;;;;;8.00;6.25;;;19.90;81.60;;;;;;4981930;28;20046;-85
2022/03/16 12:36:29;;;;;;;7.00;5.53;;;19.80;78.80;;;;;;4979046;28;20576;-84
2022/03/16 12:38:57;;;;;;;5.88;4.72;;;20.00;80.10;;;;;;4983689;28;20053;-86
2022/03/16 12:44:11;;;;;;;7.00;5.20;;;20.20;78.30;;;;;;5002489;28;20051;-88
2022/03/16 12:46:37;;;;;;;6.20;5.13;;;20.40;77.80;;;;;;4996569;28;20491;-86
2022/03/16 12:49:13;;;;;;;6.47;5.28;;;20.40;76.60;;;;;;4984169;28;20041;-86
2022/03/16 12:51:48;;;;;;;6.70;5.68;;;20.20;72.90;;;;;;4982991;28;20046;-85
2022/03/16 12:54:27;;;;;;;6.65;5.90;;;20.00;75.00;;;;;;4996287;28;20096;-85
2022/03/16 12:56:55;;;;;;;9.45;5.88;;;19.70;77.90;;;;;;4981360;28;20096;-85
2022/03/16 12:59:34;;;;;;;6.68;5.50;;;19.70;77.10;;;;;;5011563;28;20086;-84
2022/03/16 13:02:04;;;;;;;8.38;5.82;;;19.60;77.10;;;;;;4995882;28;20042;-85
2022/03/16 13:04:30;;;;;;;7.80;6.20;;;19.30;77.60;;;;;;4996515;28;20050;-85